Potterville, Michigan
Current Conditions -  °F | °C
As of 8:15 AM on Tuesday 21 Oct 2014 (Local Time) from KFPK Reporting Station
Light Rain Light Rain  
Wind Chill: 44°   Ceiling: 1500
Heat Index: 47°   Visibility: 5mi
Dew Point: 44°   Wind: 6mph
Humidity: 91%   Direction: 320°NW
Pressure: 30"   Gusts: NA
Location:  42.63°N, 84.74°W
Report Text: KFPK 211215Z AUTO 32005KT 5SM -RA SCT008 OVC015 08/07 A3000 RMK AO2 T00830069
Loading
Personal Weather Stations






























Interactive Weather Map
Tropical Storm Tracking
New forecast layout! Learn more

10-Day Weather Forecast

Advertisements
Track Severe Weather on mobile